sensor_id;sensor_type;location;lat;lon;timestamp;P1;durP1;ratioP1;P2;durP2;ratioP2
757;SDS011;363;48.764;9.172;2023-01-28T00:00:55;8.67;;;5.50;;
757;SDS011;363;48.764;9.172;2023-01-28T00:03:20;6.70;;;5.53;;
757;SDS011;363;48.764;9.172;2023-01-28T00:05:46;6.33;;;5.70;;
757;SDS011;363;48.764;9.172;2023-01-28T00:08:11;6.97;;;5.97;;
757;SDS011;363;48.764;9.172;2023-01-28T00:10:38;6.80;;;5.43;;
757;SDS011;363;48.764;9.172;2023-01-28T00:13:05;6.83;;;5.60;;
757;SDS011;363;48.764;9.172;2023-01-28T00:15:30;7.50;;;6.80;;
757;SDS011;363;48.764;9.172;2023-01-28T00:17:56;11.13;;;5.87;;
757;SDS011;363;48.764;9.172;2023-01-28T00:20:22;6.80;;;5.93;;
757;SDS011;363;48.764;9.172;2023-01-28T00:22:47;8.00;;;6.93;;
757;SDS011;363;48.764;9.172;2023-01-28T00:25:13;7.00;;;5.60;;
757;SDS011;363;48.764;9.172;2023-01-28T00:27:39;8.20;;;6.05;;
757;SDS011;363;48.764;9.172;2023-01-28T00:30:05;6.67;;;5.47;;
757;SDS011;363;48.764;9.172;2023-01-28T00:32:31;6.60;;;5.05;;
757;SDS011;363;48.764;9.172;2023-01-28T00:34:56;6.77;;;5.27;;
757;SDS011;363;48.764;9.172;2023-01-28T00:37:22;7.67;;;5.50;;
757;SDS011;363;48.764;9.172;2023-01-28T00:39:48;6.83;;;5.43;;
757;SDS011;363;48.764;9.172;2023-01-28T00:42:13;6.50;;;5.40;;
757;SDS011;363;48.764;9.172;2023-01-28T00:44:39;6.00;;;5.37;;
757;SDS011;363;48.764;9.172;2023-01-28T00:47:05;7.93;;;5.43;;
757;SDS011;363;48.764;9.172;2023-01-28T00:49:30;6.77;;;5.23;;
757;SDS011;363;48.764;9.172;2023-01-28T00:51:56;5.97;;;5.30;;
757;SDS011;363;48.764;9.172;2023-01-28T00:54:21;6.40;;;5.53;;
757;SDS011;363;48.764;9.172;2023-01-28T00:56:47;6.97;;;6.17;;
757;SDS011;363;48.764;9.172;2023-01-28T00:59:12;8.87;;;6.07;;
757;SDS011;363;48.764;9.172;2023-01-28T01:01:38;7.17;;;5.87;;
757;SDS011;363;48.764;9.172;2023-01-28T01:04:03;5.20;;;4.50;;
757;SDS011;363;48.764;9.172;2023-01-28T01:06:33;6.20;;;5.43;;
757;SDS011;363;48.764;9.172;2023-01-28T01:09:02;10.95;;;5.72;;
757;SDS011;363;48.764;9.172;2023-01-28T01:11:29;5.93;;;5.32;;
757;SDS011;363;48.764;9.172;2023-01-28T01:13:56;5.07;;;4.57;;
757;SDS011;363;48.764;9.172;2023-01-28T01:16:27;6.95;;;5.70;;
757;SDS011;363;48.764;9.172;2023-01-28T01:18:54;6.40;;;5.32;;
757;SDS011;363;48.764;9.172;2023-01-28T01:21:22;6.93;;;5.18;;
757;SDS011;363;48.764;9.172;2023-01-28T01:23:50;5.95;;;4.78;;
757;SDS011;363;48.764;9.172;2023-01-28T01:26:16;6.40;;;5.22;;
757;SDS011;363;48.764;9.172;2023-01-28T01:28:41;4.97;;;4.40;;
757;SDS011;363;48.764;9.172;2023-01-28T01:31:10;7.10;;;5.27;;
757;SDS011;363;48.764;9.172;2023-01-28T01:33:38;5.43;;;4.85;;
757;SDS011;363;48.764;9.172;2023-01-28T01:36:05;6.25;;;5.03;;
757;SDS011;363;48.764;9.172;2023-01-28T01:38:30;7.25;;;5.47;;
757;SDS011;363;48.764;9.172;2023-01-28T01:40:57;5.07;;;4.40;;
757;SDS011;363;48.764;9.172;2023-01-28T01:43:23;6.03;;;5.40;;
757;SDS011;363;48.764;9.172;2023-01-28T01:45:57;7.05;;;5.60;;
757;SDS011;363;48.764;9.172;2023-01-28T01:48:27;6.00;;;5.22;;
757;SDS011;363;48.764;9.172;2023-01-28T01:51:06;6.28;;;5.10;;
757;SDS011;363;48.764;9.172;2023-01-28T01:53:34;4.85;;;4.25;;
757;SDS011;363;48.764;9.172;2023-01-28T01:56:03;6.05;;;4.43;;
757;SDS011;363;48.764;9.172;2023-01-28T01:58:34;5.53;;;4.72;;
757;SDS011;363;48.764;9.172;2023-01-28T02:01:03;6.53;;;5.22;;
757;SDS011;363;48.764;9.172;2023-01-28T02:04:03;6.25;;;5.00;;
757;SDS011;363;48.764;9.172;2023-01-28T02:06:33;6.25;;;5.28;;
757;SDS011;363;48.764;9.172;2023-01-28T02:09:00;7.00;;;5.40;;
757;SDS011;363;48.764;9.172;2023-01-28T02:11:27;8.63;;;5.28;;
757;SDS011;363;48.764;9.172;2023-01-28T02:13:56;5.78;;;5.13;;
757;SDS011;363;48.764;9.172;2023-01-28T02:16:25;11.52;;;6.28;;
757;SDS011;363;48.764;9.172;2023-01-28T02:18:52;7.32;;;4.90;;
757;SDS011;363;48.764;9.172;2023-01-28T02:27:26;5.93;;;5.10;;
757;SDS011;363;48.764;9.172;2023-01-28T02:30:14;6.22;;;4.72;;
757;SDS011;363;48.764;9.172;2023-01-28T02:32:52;4.88;;;4.47;;
757;SDS011;363;48.764;9.172;2023-01-28T02:35:28;5.25;;;4.75;;
757;SDS011;363;48.764;9.172;2023-01-28T02:38:03;4.95;;;4.07;;
757;SDS011;363;48.764;9.172;2023-01-28T02:40:36;5.15;;;4.68;;
757;SDS011;363;48.764;9.172;2023-01-28T02:43:36;5.88;;;4.35;;
757;SDS011;363;48.764;9.172;2023-01-28T02:46:52;5.20;;;4.70;;
757;SDS011;363;48.764;9.172;2023-01-28T02:49:15;6.18;;;5.15;;
757;SDS011;363;48.764;9.172;2023-01-28T03:02:58;4.78;;;4.15;;
757;SDS011;363;48.764;9.172;2023-01-28T03:05:56;5.38;;;4.22;;
757;SDS011;363;48.764;9.172;2023-01-28T03:08:39;4.65;;;4.20;;
757;SDS011;363;48.764;9.172;2023-01-28T03:11:29;5.65;;;3.92;;
757;SDS011;363;48.764;9.172;2023-01-28T03:14:15;5.78;;;4.93;;
757;SDS011;363;48.764;9.172;2023-01-28T03:17:01;5.60;;;4.72;;
757;SDS011;363;48.764;9.172;2023-01-28T03:19:46;6.22;;;5.18;;
757;SDS011;363;48.764;9.172;2023-01-28T03:22:31;6.07;;;5.47;;
757;SDS011;363;48.764;9.172;2023-01-28T03:25:20;5.90;;;4.80;;
757;SDS011;363;48.764;9.172;2023-01-28T03:28:07;6.75;;;6.03;;
757;SDS011;363;48.764;9.172;2023-01-28T03:33:40;6.97;;;6.10;;
757;SDS011;363;48.764;9.172;2023-01-28T03:36:26;6.97;;;6.28;;
757;SDS011;363;48.764;9.172;2023-01-28T03:39:11;7.82;;;6.18;;
757;SDS011;363;48.764;9.172;2023-01-28T03:41:37;6.73;;;5.73;;
757;SDS011;363;48.764;9.172;2023-01-28T03:44:02;6.60;;;5.90;;
757;SDS011;363;48.764;9.172;2023-01-28T03:46:46;6.63;;;5.93;;
757;SDS011;363;48.764;9.172;2023-01-28T03:49:13;7.40;;;5.73;;
757;SDS011;363;48.764;9.172;2023-01-28T03:51:39;8.88;;;6.28;;
757;SDS011;363;48.764;9.172;2023-01-28T03:54:05;7.37;;;6.53;;
757;SDS011;363;48.764;9.172;2023-01-28T03:56:30;7.53;;;5.97;;
757;SDS011;363;48.764;9.172;2023-01-28T03:59:04;9.45;;;6.82;;
757;SDS011;363;48.764;9.172;2023-01-28T04:01:31;8.93;;;6.78;;
757;SDS011;363;48.764;9.172;2023-01-28T04:03:56;8.33;;;7.00;;
757;SDS011;363;48.764;9.172;2023-01-28T04:06:22;7.47;;;6.40;;
757;SDS011;363;48.764;9.172;2023-01-28T04:08:48;9.52;;;6.85;;
757;SDS011;363;48.764;9.172;2023-01-28T04:11:17;7.65;;;6.03;;
757;SDS011;363;48.764;9.172;2023-01-28T04:13:45;8.48;;;7.25;;
757;SDS011;363;48.764;9.172;2023-01-28T04:16:12;9.50;;;7.75;;
757;SDS011;363;48.764;9.172;2023-01-28T04:18:40;10.32;;;6.97;;
757;SDS011;363;48.764;9.172;2023-01-28T04:21:06;8.30;;;6.35;;
757;SDS011;363;48.764;9.172;2023-01-28T04:23:32;8.60;;;6.43;;
757;SDS011;363;48.764;9.172;2023-01-28T04:25:57;8.90;;;6.80;;
757;SDS011;363;48.764;9.172;2023-01-28T04:28:23;10.00;;;7.33;;
757;SDS011;363;48.764;9.172;2023-01-28T04:30:48;8.53;;;6.43;;
757;SDS011;363;48.764;9.172;2023-01-28T04:33:16;8.82;;;6.93;;
757;SDS011;363;48.764;9.172;2023-01-28T04:35:41;8.03;;;6.97;;
757;SDS011;363;48.764;9.172;2023-01-28T04:38:07;8.63;;;6.30;;
757;SDS011;363;48.764;9.172;2023-01-28T04:40:32;8.03;;;6.70;;
757;SDS011;363;48.764;9.172;2023-01-28T04:42:58;7.60;;;6.23;;
757;SDS011;363;48.764;9.172;2023-01-28T04:45:23;8.83;;;7.90;;
757;SDS011;363;48.764;9.172;2023-01-28T04:47:49;8.27;;;7.17;;
757;SDS011;363;48.764;9.172;2023-01-28T04:50:15;9.80;;;7.40;;
757;SDS011;363;48.764;9.172;2023-01-28T04:52:41;8.60;;;7.33;;
757;SDS011;363;48.764;9.172;2023-01-28T04:55:07;9.37;;;7.77;;
757;SDS011;363;48.764;9.172;2023-01-28T04:57:33;10.75;;;8.10;;
757;SDS011;363;48.764;9.172;2023-01-28T04:59:59;8.60;;;7.10;;
757;SDS011;363;48.764;9.172;2023-01-28T05:02:24;10.43;;;7.93;;
757;SDS011;363;48.764;9.172;2023-01-28T05:04:50;13.00;;;7.23;;
757;SDS011;363;48.764;9.172;2023-01-28T05:07:15;7.40;;;6.60;;
757;SDS011;363;48.764;9.172;2023-01-28T05:09:41;7.70;;;6.87;;
757;SDS011;363;48.764;9.172;2023-01-28T05:12:06;9.57;;;7.10;;
757;SDS011;363;48.764;9.172;2023-01-28T05:14:32;9.57;;;7.17;;
757;SDS011;363;48.764;9.172;2023-01-28T05:16:57;9.40;;;7.03;;
757;SDS011;363;48.764;9.172;2023-01-28T05:19:23;8.07;;;7.23;;
757;SDS011;363;48.764;9.172;2023-01-28T05:21:48;8.17;;;6.70;;
757;SDS011;363;48.764;9.172;2023-01-28T05:24:14;10.93;;;7.13;;
757;SDS011;363;48.764;9.172;2023-01-28T05:26:40;10.73;;;8.40;;
757;SDS011;363;48.764;9.172;2023-01-28T05:29:05;12.07;;;8.07;;
757;SDS011;363;48.764;9.172;2023-01-28T05:31:31;8.80;;;7.13;;
757;SDS011;363;48.764;9.172;2023-01-28T05:33:56;9.70;;;6.97;;
757;SDS011;363;48.764;9.172;2023-01-28T05:36:22;8.23;;;6.50;;
757;SDS011;363;48.764;9.172;2023-01-28T05:38:48;9.43;;;7.67;;
757;SDS011;363;48.764;9.172;2023-01-28T05:41:13;9.67;;;7.47;;
757;SDS011;363;48.764;9.172;2023-01-28T05:43:39;8.27;;;6.93;;
757;SDS011;363;48.764;9.172;2023-01-28T05:46:04;10.43;;;7.20;;
757;SDS011;363;48.764;9.172;2023-01-28T05:48:30;8.87;;;7.93;;
757;SDS011;363;48.764;9.172;2023-01-28T05:50:55;8.63;;;7.43;;
757;SDS011;363;48.764;9.172;2023-01-28T05:53:21;8.87;;;7.43;;
757;SDS011;363;48.764;9.172;2023-01-28T05:55:50;8.87;;;7.67;;
757;SDS011;363;48.764;9.172;2023-01-28T05:58:17;9.65;;;8.38;;
757;SDS011;363;48.764;9.172;2023-01-28T06:00:43;9.88;;;7.60;;
757;SDS011;363;48.764;9.172;2023-01-28T06:03:09;9.17;;;7.70;;
757;SDS011;363;48.764;9.172;2023-01-28T06:05:35;12.43;;;8.20;;
757;SDS011;363;48.764;9.172;2023-01-28T06:08:00;9.80;;;7.67;;
757;SDS011;363;48.764;9.172;2023-01-28T06:10:26;9.53;;;7.90;;
757;SDS011;363;48.764;9.172;2023-01-28T06:12:51;9.50;;;7.97;;
757;SDS011;363;48.764;9.172;2023-01-28T06:15:17;8.20;;;6.90;;
757;SDS011;363;48.764;9.172;2023-01-28T06:17:42;9.23;;;7.50;;
757;SDS011;363;48.764;9.172;2023-01-28T06:20:08;8.90;;;7.10;;
757;SDS011;363;48.764;9.172;2023-01-28T06:22:34;9.70;;;8.10;;
757;SDS011;363;48.764;9.172;2023-01-28T06:25:00;8.67;;;7.40;;
757;SDS011;363;48.764;9.172;2023-01-28T06:27:25;9.13;;;7.40;;
757;SDS011;363;48.764;9.172;2023-01-28T06:29:51;9.40;;;7.40;;
757;SDS011;363;48.764;9.172;2023-01-28T06:32:17;16.17;;;7.37;;
757;SDS011;363;48.764;9.172;2023-01-28T06:34:43;9.50;;;7.67;;
757;SDS011;363;48.764;9.172;2023-01-28T06:37:11;8.93;;;7.67;;
757;SDS011;363;48.764;9.172;2023-01-28T06:39:37;8.20;;;7.10;;
757;SDS011;363;48.764;9.172;2023-01-28T06:42:03;8.73;;;6.50;;
757;SDS011;363;48.764;9.172;2023-01-28T06:44:28;9.60;;;7.43;;
757;SDS011;363;48.764;9.172;2023-01-28T06:46:54;8.70;;;7.47;;
757;SDS011;363;48.764;9.172;2023-01-28T06:49:19;7.73;;;6.80;;
757;SDS011;363;48.764;9.172;2023-01-28T06:51:45;8.95;;;7.38;;
757;SDS011;363;48.764;9.172;2023-01-28T06:54:11;10.37;;;8.03;;
757;SDS011;363;48.764;9.172;2023-01-28T06:56:37;10.03;;;7.67;;
757;SDS011;363;48.764;9.172;2023-01-28T06:59:02;8.13;;;6.90;;
757;SDS011;363;48.764;9.172;2023-01-28T07:01:28;12.70;;;8.23;;
757;SDS011;363;48.764;9.172;2023-01-28T07:03:53;8.90;;;7.10;;
757;SDS011;363;48.764;9.172;2023-01-28T07:06:19;10.68;;;8.18;;
757;SDS011;363;48.764;9.172;2023-01-28T07:08:45;10.50;;;7.50;;
757;SDS011;363;48.764;9.172;2023-01-28T07:11:11;9.48;;;8.18;;
757;SDS011;363;48.764;9.172;2023-01-28T07:13:37;10.87;;;7.10;;
757;SDS011;363;48.764;9.172;2023-01-28T07:16:02;9.23;;;7.33;;
757;SDS011;363;48.764;9.172;2023-01-28T07:18:28;8.10;;;6.87;;
757;SDS011;363;48.764;9.172;2023-01-28T07:20:54;9.77;;;8.05;;
757;SDS011;363;48.764;9.172;2023-01-28T07:23:20;10.20;;;7.90;;
757;SDS011;363;48.764;9.172;2023-01-28T07:25:46;10.13;;;8.57;;
757;SDS011;363;48.764;9.172;2023-01-28T07:28:11;8.80;;;7.13;;
757;SDS011;363;48.764;9.172;2023-01-28T07:30:37;10.57;;;7.67;;
757;SDS011;363;48.764;9.172;2023-01-28T07:33:02;8.67;;;6.70;;
757;SDS011;363;48.764;9.172;2023-01-28T07:35:28;9.10;;;7.30;;
757;SDS011;363;48.764;9.172;2023-01-28T07:37:56;8.60;;;7.35;;
757;SDS011;363;48.764;9.172;2023-01-28T07:40:23;11.02;;;8.18;;
757;SDS011;363;48.764;9.172;2023-01-28T07:42:49;11.25;;;8.57;;
757;SDS011;363;48.764;9.172;2023-01-28T07:45:15;9.50;;;8.10;;
757;SDS011;363;48.764;9.172;2023-01-28T07:47:41;9.33;;;7.57;;
757;SDS011;363;48.764;9.172;2023-01-28T07:50:07;9.63;;;8.47;;
757;SDS011;363;48.764;9.172;2023-01-28T07:52:35;10.82;;;8.15;;
757;SDS011;363;48.764;9.172;2023-01-28T07:55:08;11.50;;;8.70;;
757;SDS011;363;48.764;9.172;2023-01-28T07:57:34;8.80;;;7.53;;
757;SDS011;363;48.764;9.172;2023-01-28T08:00:00;10.20;;;8.20;;
757;SDS011;363;48.764;9.172;2023-01-28T08:02:25;9.50;;;7.90;;
757;SDS011;363;48.764;9.172;2023-01-28T08:04:53;9.15;;;7.35;;
757;SDS011;363;48.764;9.172;2023-01-28T08:07:18;10.30;;;7.57;;
757;SDS011;363;48.764;9.172;2023-01-28T08:09:44;10.40;;;8.20;;
757;SDS011;363;48.764;9.172;2023-01-28T08:12:09;8.53;;;7.63;;
757;SDS011;363;48.764;9.172;2023-01-28T08:14:35;10.40;;;7.80;;
757;SDS011;363;48.764;9.172;2023-01-28T08:17:00;12.90;;;8.80;;
757;SDS011;363;48.764;9.172;2023-01-28T08:19:26;10.20;;;9.00;;
757;SDS011;363;48.764;9.172;2023-01-28T08:21:51;9.40;;;7.37;;
757;SDS011;363;48.764;9.172;2023-01-28T08:24:17;8.53;;;7.60;;
757;SDS011;363;48.764;9.172;2023-01-28T08:26:43;11.00;;;8.93;;
757;SDS011;363;48.764;9.172;2023-01-28T08:29:08;9.50;;;7.73;;
757;SDS011;363;48.764;9.172;2023-01-28T08:31:34;10.33;;;8.23;;
757;SDS011;363;48.764;9.172;2023-01-28T08:33:59;10.90;;;8.27;;
757;SDS011;363;48.764;9.172;2023-01-28T08:36:25;10.07;;;8.33;;
757;SDS011;363;48.764;9.172;2023-01-28T08:38:51;10.70;;;9.10;;
757;SDS011;363;48.764;9.172;2023-01-28T08:41:19;10.00;;;8.77;;
757;SDS011;363;48.764;9.172;2023-01-28T08:43:47;9.90;;;8.60;;
757;SDS011;363;48.764;9.172;2023-01-28T08:46:14;10.73;;;9.37;;
757;SDS011;363;48.764;9.172;2023-01-28T08:48:39;10.57;;;8.85;;
757;SDS011;363;48.764;9.172;2023-01-28T08:51:05;10.10;;;7.97;;
757;SDS011;363;48.764;9.172;2023-01-28T08:53:31;10.70;;;9.00;;
757;SDS011;363;48.764;9.172;2023-01-28T08:55:56;12.13;;;8.90;;
757;SDS011;363;48.764;9.172;2023-01-28T08:58:22;11.07;;;9.07;;
757;SDS011;363;48.764;9.172;2023-01-28T09:00:47;10.33;;;8.63;;
757;SDS011;363;48.764;9.172;2023-01-28T09:03:14;12.82;;;9.35;;
757;SDS011;363;48.764;9.172;2023-01-28T09:05:40;11.32;;;8.68;;
757;SDS011;363;48.764;9.172;2023-01-28T09:08:10;9.13;;;8.20;;
757;SDS011;363;48.764;9.172;2023-01-28T09:10:37;12.18;;;10.13;;
757;SDS011;363;48.764;9.172;2023-01-28T09:13:04;10.68;;;8.30;;
757;SDS011;363;48.764;9.172;2023-01-28T09:15:31;11.13;;;9.05;;
757;SDS011;363;48.764;9.172;2023-01-28T09:17:57;11.27;;;9.82;;
757;SDS011;363;48.764;9.172;2023-01-28T09:20:23;14.60;;;11.77;;
757;SDS011;363;48.764;9.172;2023-01-28T09:22:49;12.30;;;9.27;;
757;SDS011;363;48.764;9.172;2023-01-28T09:25:14;12.23;;;9.30;;
757;SDS011;363;48.764;9.172;2023-01-28T09:27:40;12.40;;;9.43;;
757;SDS011;363;48.764;9.172;2023-01-28T09:30:05;12.23;;;9.33;;
757;SDS011;363;48.764;9.172;2023-01-28T09:32:32;12.43;;;9.60;;
757;SDS011;363;48.764;9.172;2023-01-28T09:34:57;13.00;;;9.43;;
757;SDS011;363;48.764;9.172;2023-01-28T09:37:23;12.00;;;10.23;;
757;SDS011;363;48.764;9.172;2023-01-28T09:39:48;10.63;;;8.93;;
757;SDS011;363;48.764;9.172;2023-01-28T09:45:14;11.27;;;9.25;;
757;SDS011;363;48.764;9.172;2023-01-28T09:47:53;12.30;;;10.10;;
757;SDS011;363;48.764;9.172;2023-01-28T09:53:43;14.02;;;9.95;;
757;SDS011;363;48.764;9.172;2023-01-28T09:56:01;13.63;;;10.43;;
757;SDS011;363;48.764;9.172;2023-01-28T09:58:27;12.70;;;9.88;;
757;SDS011;363;48.764;9.172;2023-01-28T10:12:04;15.50;;;10.00;;
757;SDS011;363;48.764;9.172;2023-01-28T10:14:44;10.85;;;8.85;;
757;SDS011;363;48.764;9.172;2023-01-28T10:17:21;13.75;;;10.85;;
757;SDS011;363;48.764;9.172;2023-01-28T10:22:26;13.48;;;9.65;;
757;SDS011;363;48.764;9.172;2023-01-28T10:25:01;15.52;;;10.25;;
757;SDS011;363;48.764;9.172;2023-01-28T10:27:32;13.98;;;9.82;;
757;SDS011;363;48.764;9.172;2023-01-28T10:30:07;11.52;;;9.40;;
757;SDS011;363;48.764;9.172;2023-01-28T10:35:25;14.13;;;10.23;;
757;SDS011;363;48.764;9.172;2023-01-28T10:37:52;14.65;;;10.98;;
757;SDS011;363;48.764;9.172;2023-01-28T10:40:25;13.73;;;8.80;;
757;SDS011;363;48.764;9.172;2023-01-28T10:42:51;12.67;;;10.30;;
757;SDS011;363;48.764;9.172;2023-01-28T10:45:18;12.97;;;9.50;;
757;SDS011;363;48.764;9.172;2023-01-28T10:50:19;12.77;;;9.52;;
757;SDS011;363;48.764;9.172;2023-01-28T10:52:53;13.73;;;9.85;;
757;SDS011;363;48.764;9.172;2023-01-28T10:55:25;12.82;;;10.57;;
757;SDS011;363;48.764;9.172;2023-01-28T10:57:54;13.38;;;9.38;;
757;SDS011;363;48.764;9.172;2023-01-28T11:00:24;12.70;;;9.90;;
757;SDS011;363;48.764;9.172;2023-01-28T11:02:52;12.82;;;10.20;;
757;SDS011;363;48.764;9.172;2023-01-28T11:05:19;13.57;;;10.63;;
757;SDS011;363;48.764;9.172;2023-01-28T11:07:50;15.80;;;11.45;;
757;SDS011;363;48.764;9.172;2023-01-28T11:10:40;13.93;;;11.35;;
757;SDS011;363;48.764;9.172;2023-01-28T11:13:17;14.15;;;10.02;;
757;SDS011;363;48.764;9.172;2023-01-28T11:15:51;12.55;;;9.07;;
757;SDS011;363;48.764;9.172;2023-01-28T11:18:23;13.63;;;11.50;;
757;SDS011;363;48.764;9.172;2023-01-28T11:20:56;14.38;;;11.18;;
757;SDS011;363;48.764;9.172;2023-01-28T11:23:26;14.60;;;10.73;;
757;SDS011;363;48.764;9.172;2023-01-28T11:25:58;13.45;;;10.45;;
757;SDS011;363;48.764;9.172;2023-01-28T11:28:32;10.48;;;9.02;;
757;SDS011;363;48.764;9.172;2023-01-28T11:30:59;12.40;;;9.52;;
757;SDS011;363;48.764;9.172;2023-01-28T11:33:31;13.38;;;10.25;;
757;SDS011;363;48.764;9.172;2023-01-28T11:43:53;12.85;;;9.77;;
757;SDS011;363;48.764;9.172;2023-01-28T11:51:51;12.43;;;9.85;;
757;SDS011;363;48.764;9.172;2023-01-28T11:59:55;14.77;;;10.25;;
757;SDS011;363;48.764;9.172;2023-01-28T12:02:50;11.95;;;8.93;;
757;SDS011;363;48.764;9.172;2023-01-28T12:10:50;12.98;;;9.00;;
757;SDS011;363;48.764;9.172;2023-01-28T12:13:44;12.95;;;9.77;;
757;SDS011;363;48.764;9.172;2023-01-28T12:16:17;13.65;;;10.20;;
757;SDS011;363;48.764;9.172;2023-01-28T12:19:13;15.52;;;10.40;;
757;SDS011;363;48.764;9.172;2023-01-28T12:24:29;14.40;;;11.05;;
757;SDS011;363;48.764;9.172;2023-01-28T12:36:18;15.07;;;11.88;;
757;SDS011;363;48.764;9.172;2023-01-28T12:39:06;16.45;;;11.20;;
757;SDS011;363;48.764;9.172;2023-01-28T12:41:41;14.40;;;10.20;;
757;SDS011;363;48.764;9.172;2023-01-28T12:44:55;13.88;;;10.20;;
757;SDS011;363;48.764;9.172;2023-01-28T12:47:08;12.85;;;10.02;;
757;SDS011;363;48.764;9.172;2023-01-28T12:49:44;14.55;;;10.27;;
757;SDS011;363;48.764;9.172;2023-01-28T12:54:57;11.23;;;9.13;;
757;SDS011;363;48.764;9.172;2023-01-28T12:57:36;13.40;;;9.65;;
757;SDS011;363;48.764;9.172;2023-01-28T13:02:56;13.77;;;10.00;;
757;SDS011;363;48.764;9.172;2023-01-28T13:05:34;12.75;;;9.90;;
757;SDS011;363;48.764;9.172;2023-01-28T13:08:12;11.18;;;8.60;;
757;SDS011;363;48.764;9.172;2023-01-28T13:10:42;11.80;;;9.05;;
757;SDS011;363;48.764;9.172;2023-01-28T13:13:28;11.13;;;8.82;;
757;SDS011;363;48.764;9.172;2023-01-28T13:15:58;10.13;;;7.32;;
757;SDS011;363;48.764;9.172;2023-01-28T13:18:41;10.23;;;6.88;;
757;SDS011;363;48.764;9.172;2023-01-28T13:21:15;11.48;;;8.00;;
757;SDS011;363;48.764;9.172;2023-01-28T13:23:44;9.18;;;6.72;;
757;SDS011;363;48.764;9.172;2023-01-28T13:28:47;10.00;;;7.68;;
757;SDS011;363;48.764;9.172;2023-01-28T13:31:17;9.27;;;7.50;;
757;SDS011;363;48.764;9.172;2023-01-28T13:33:46;7.53;;;6.20;;
757;SDS011;363;48.764;9.172;2023-01-28T13:36:25;7.68;;;6.00;;
757;SDS011;363;48.764;9.172;2023-01-28T13:39:00;6.85;;;5.55;;
757;SDS011;363;48.764;9.172;2023-01-28T13:50:17;8.90;;;6.55;;
757;SDS011;363;48.764;9.172;2023-01-28T13:52:24;13.60;;;6.90;;
757;SDS011;363;48.764;9.172;2023-01-28T13:55:00;10.10;;;7.50;;
757;SDS011;363;48.764;9.172;2023-01-28T14:00:06;8.77;;;7.15;;
757;SDS011;363;48.764;9.172;2023-01-28T14:06:02;9.35;;;7.40;;
757;SDS011;363;48.764;9.172;2023-01-28T14:17:08;10.48;;;7.80;;
757;SDS011;363;48.764;9.172;2023-01-28T14:19:56;12.13;;;8.85;;
757;SDS011;363;48.764;9.172;2023-01-28T14:22:23;12.52;;;8.55;;
757;SDS011;363;48.764;9.172;2023-01-28T14:24:49;8.95;;;7.43;;
757;SDS011;363;48.764;9.172;2023-01-28T14:32:48;10.27;;;8.95;;
757;SDS011;363;48.764;9.172;2023-01-28T14:35:21;10.25;;;8.00;;
757;SDS011;363;48.764;9.172;2023-01-28T14:37:53;8.25;;;7.43;;
757;SDS011;363;48.764;9.172;2023-01-28T14:40:19;9.02;;;7.70;;
757;SDS011;363;48.764;9.172;2023-01-28T14:42:46;9.80;;;7.23;;
757;SDS011;363;48.764;9.172;2023-01-28T14:48:19;9.18;;;7.55;;
757;SDS011;363;48.764;9.172;2023-01-28T14:51:16;11.07;;;8.70;;
757;SDS011;363;48.764;9.172;2023-01-28T14:53:55;10.85;;;8.10;;
757;SDS011;363;48.764;9.172;2023-01-28T14:56:37;11.70;;;8.40;;
757;SDS011;363;48.764;9.172;2023-01-28T14:59:22;10.18;;;7.63;;
757;SDS011;363;48.764;9.172;2023-01-28T15:01:54;8.05;;;7.25;;
757;SDS011;363;48.764;9.172;2023-01-28T15:06:54;11.18;;;7.32;;
757;SDS011;363;48.764;9.172;2023-01-28T15:09:22;9.20;;;7.00;;
757;SDS011;363;48.764;9.172;2023-01-28T15:11:49;6.18;;;5.50;;
757;SDS011;363;48.764;9.172;2023-01-28T15:14:21;8.75;;;6.25;;
757;SDS011;363;48.764;9.172;2023-01-28T15:16:49;8.95;;;6.85;;
757;SDS011;363;48.764;9.172;2023-01-28T15:19:15;7.97;;;6.63;;
757;SDS011;363;48.764;9.172;2023-01-28T15:21:42;7.20;;;6.50;;
757;SDS011;363;48.764;9.172;2023-01-28T15:24:09;6.85;;;6.15;;
757;SDS011;363;48.764;9.172;2023-01-28T15:26:37;7.70;;;6.40;;
757;SDS011;363;48.764;9.172;2023-01-28T15:29:03;8.60;;;6.87;;
757;SDS011;363;48.764;9.172;2023-01-28T15:31:33;8.88;;;6.80;;
757;SDS011;363;48.764;9.172;2023-01-28T15:34:13;6.95;;;6.30;;
757;SDS011;363;48.764;9.172;2023-01-28T15:36:40;7.85;;;6.40;;
757;SDS011;363;48.764;9.172;2023-01-28T15:39:16;9.25;;;7.88;;
757;SDS011;363;48.764;9.172;2023-01-28T15:41:45;9.30;;;7.10;;
757;SDS011;363;48.764;9.172;2023-01-28T15:44:36;7.10;;;6.28;;
757;SDS011;363;48.764;9.172;2023-01-28T15:49:40;7.32;;;6.63;;
757;SDS011;363;48.764;9.172;2023-01-28T15:52:09;6.10;;;5.28;;
757;SDS011;363;48.764;9.172;2023-01-28T15:54:42;7.55;;;5.97;;
757;SDS011;363;48.764;9.172;2023-01-28T15:57:17;8.05;;;6.03;;
757;SDS011;363;48.764;9.172;2023-01-28T15:59:51;8.27;;;6.38;;
757;SDS011;363;48.764;9.172;2023-01-28T16:02:41;7.05;;;6.35;;
757;SDS011;363;48.764;9.172;2023-01-28T16:05:23;8.52;;;6.47;;
757;SDS011;363;48.764;9.172;2023-01-28T16:07:51;7.50;;;6.28;;
757;SDS011;363;48.764;9.172;2023-01-28T16:10:18;8.93;;;6.15;;
757;SDS011;363;48.764;9.172;2023-01-28T16:12:50;8.20;;;7.30;;
757;SDS011;363;48.764;9.172;2023-01-28T16:15:18;8.05;;;6.30;;
757;SDS011;363;48.764;9.172;2023-01-28T16:17:46;8.15;;;6.57;;
757;SDS011;363;48.764;9.172;2023-01-28T16:20:21;8.75;;;7.35;;
757;SDS011;363;48.764;9.172;2023-01-28T16:22:53;7.82;;;6.13;;
757;SDS011;363;48.764;9.172;2023-01-28T16:27:46;5.80;;;5.30;;
757;SDS011;363;48.764;9.172;2023-01-28T16:30:12;7.18;;;6.00;;
757;SDS011;363;48.764;9.172;2023-01-28T16:32:39;6.85;;;5.60;;
757;SDS011;363;48.764;9.172;2023-01-28T16:37:48;6.90;;;6.20;;
757;SDS011;363;48.764;9.172;2023-01-28T16:40:16;6.77;;;6.03;;
757;SDS011;363;48.764;9.172;2023-01-28T16:42:46;6.25;;;5.55;;
757;SDS011;363;48.764;9.172;2023-01-28T16:47:42;6.45;;;5.60;;
757;SDS011;363;48.764;9.172;2023-01-28T16:50:09;7.93;;;5.77;;
757;SDS011;363;48.764;9.172;2023-01-28T16:52:36;8.80;;;5.97;;
757;SDS011;363;48.764;9.172;2023-01-28T16:55:02;6.50;;;5.63;;
757;SDS011;363;48.764;9.172;2023-01-28T16:57:29;7.60;;;5.88;;
757;SDS011;363;48.764;9.172;2023-01-28T16:59:59;7.03;;;5.32;;
757;SDS011;363;48.764;9.172;2023-01-28T17:02:24;7.00;;;6.30;;
757;SDS011;363;48.764;9.172;2023-01-28T17:04:50;6.13;;;5.53;;
757;SDS011;363;48.764;9.172;2023-01-28T17:07:16;6.50;;;5.00;;
757;SDS011;363;48.764;9.172;2023-01-28T17:09:44;7.35;;;5.20;;
757;SDS011;363;48.764;9.172;2023-01-28T17:12:09;6.87;;;5.70;;
757;SDS011;363;48.764;9.172;2023-01-28T17:14:35;6.87;;;5.77;;
757;SDS011;363;48.764;9.172;2023-01-28T17:17:01;8.97;;;6.13;;
757;SDS011;363;48.764;9.172;2023-01-28T17:19:26;6.83;;;6.10;;
757;SDS011;363;48.764;9.172;2023-01-28T17:21:52;10.10;;;6.97;;
757;SDS011;363;48.764;9.172;2023-01-28T17:24:17;7.73;;;6.17;;
757;SDS011;363;48.764;9.172;2023-01-28T17:26:43;7.70;;;5.83;;
757;SDS011;363;48.764;9.172;2023-01-28T17:29:08;6.30;;;5.60;;
757;SDS011;363;48.764;9.172;2023-01-28T17:31:34;10.27;;;6.43;;
757;SDS011;363;48.764;9.172;2023-01-28T17:34:00;9.18;;;7.50;;
757;SDS011;363;48.764;9.172;2023-01-28T17:36:26;8.02;;;6.70;;
757;SDS011;363;48.764;9.172;2023-01-28T17:38:52;6.50;;;5.70;;
757;SDS011;363;48.764;9.172;2023-01-28T17:41:18;6.43;;;5.77;;
757;SDS011;363;48.764;9.172;2023-01-28T17:43:51;6.85;;;6.15;;
757;SDS011;363;48.764;9.172;2023-01-28T17:46:18;8.20;;;5.85;;
757;SDS011;363;48.764;9.172;2023-01-28T17:48:43;10.40;;;6.93;;
757;SDS011;363;48.764;9.172;2023-01-28T17:51:10;7.72;;;6.93;;
757;SDS011;363;48.764;9.172;2023-01-28T17:53:36;6.93;;;6.20;;
757;SDS011;363;48.764;9.172;2023-01-28T17:56:02;7.88;;;6.22;;
757;SDS011;363;48.764;9.172;2023-01-28T17:58:28;7.50;;;6.80;;
757;SDS011;363;48.764;9.172;2023-01-28T18:00:54;7.97;;;7.18;;
757;SDS011;363;48.764;9.172;2023-01-28T18:03:20;8.60;;;7.65;;
757;SDS011;363;48.764;9.172;2023-01-28T18:05:54;10.03;;;6.67;;
757;SDS011;363;48.764;9.172;2023-01-28T18:08:22;9.70;;;6.43;;